sensor_id;sensor_type;location;lat;lon;timestamp;pressure;altitude;pressure_sealevel;temperature;humidity
10060;BME280;5069;49.306;8.636;2023-05-20T00:02:06;100675.63;;;16.68;57.13
10060;BME280;5069;49.306;8.636;2023-05-20T00:05:07;100675.00;;;16.63;57.28
10060;BME280;5069;49.306;8.636;2023-05-20T00:08:09;100670.31;;;16.68;57.29
10060;BME280;5069;49.306;8.636;2023-05-20T00:11:11;100673.28;;;16.62;57.59
10060;BME280;5069;49.306;8.636;2023-05-20T00:14:12;100663.88;;;16.55;57.70
10060;BME280;5069;49.306;8.636;2023-05-20T00:17:14;100652.38;;;16.54;57.99
10060;BME280;5069;49.306;8.636;2023-05-20T00:20:15;100651.91;;;16.46;58.38
10060;BME280;5069;49.306;8.636;2023-05-20T00:23:17;100651.41;;;16.40;58.85
10060;BME280;5069;49.306;8.636;2023-05-20T00:26:18;100645.56;;;16.33;59.17
10060;BME280;5069;49.306;8.636;2023-05-20T00:29:25;100648.91;;;16.37;59.36
10060;BME280;5069;49.306;8.636;2023-05-20T00:32:28;100655.47;;;16.30;59.89
10060;BME280;5069;49.306;8.636;2023-05-20T00:35:30;100656.44;;;16.29;60.21
10060;BME280;5069;49.306;8.636;2023-05-20T00:38:32;100651.88;;;16.31;60.49
10060;BME280;5069;49.306;8.636;2023-05-20T00:41:34;100658.13;;;16.30;60.80
10060;BME280;5069;49.306;8.636;2023-05-20T00:44:36;100658.25;;;16.28;60.88
10060;BME280;5069;49.306;8.636;2023-05-20T00:47:37;100651.28;;;16.26;61.52
10060;BME280;5069;49.306;8.636;2023-05-20T00:50:39;100651.53;;;16.21;61.88
10060;BME280;5069;49.306;8.636;2023-05-20T00:53:41;100648.78;;;16.23;62.15
10060;BME280;5069;49.306;8.636;2023-05-20T00:56:42;100632.09;;;16.19;62.31
10060;BME280;5069;49.306;8.636;2023-05-20T00:59:44;100640.00;;;16.21;62.55
10060;BME280;5069;49.306;8.636;2023-05-20T01:02:46;100628.44;;;16.22;62.79
10060;BME280;5069;49.306;8.636;2023-05-20T01:05:48;100638.47;;;16.17;63.15
10060;BME280;5069;49.306;8.636;2023-05-20T01:08:50;100637.59;;;16.16;63.14
10060;BME280;5069;49.306;8.636;2023-05-20T01:11:57;100631.56;;;16.12;63.73
10060;BME280;5069;49.306;8.636;2023-05-20T01:15:07;100633.47;;;16.10;63.55
10060;BME280;5069;49.306;8.636;2023-05-20T01:18:10;100642.22;;;16.12;63.88
10060;BME280;5069;49.306;8.636;2023-05-20T01:21:14;100637.22;;;16.06;64.25
10060;BME280;5069;49.306;8.636;2023-05-20T01:24:16;100630.03;;;16.08;64.82
10060;BME280;5069;49.306;8.636;2023-05-20T01:27:18;100629.88;;;16.11;65.00
10060;BME280;5069;49.306;8.636;2023-05-20T01:30:21;100625.25;;;16.15;64.71
10060;BME280;5069;49.306;8.636;2023-05-20T01:33:24;100627.66;;;16.20;64.86
10060;BME280;5069;49.306;8.636;2023-05-20T01:36:26;100630.88;;;16.09;65.51
10060;BME280;5069;49.306;8.636;2023-05-20T01:39:29;100635.41;;;16.07;65.81
10060;BME280;5069;49.306;8.636;2023-05-20T01:42:31;100632.94;;;16.04;66.57
10060;BME280;5069;49.306;8.636;2023-05-20T01:45:34;100629.16;;;16.08;66.69
10060;BME280;5069;49.306;8.636;2023-05-20T01:48:36;100633.94;;;16.01;67.26
10060;BME280;5069;49.306;8.636;2023-05-20T01:51:38;100629.34;;;16.05;66.95
10060;BME280;5069;49.306;8.636;2023-05-20T01:54:40;100629.47;;;16.02;67.41
10060;BME280;5069;49.306;8.636;2023-05-20T01:57:41;100626.91;;;16.00;67.51
10060;BME280;5069;49.306;8.636;2023-05-20T02:00:43;100634.91;;;16.00;67.94
10060;BME280;5069;49.306;8.636;2023-05-20T02:03:44;100624.78;;;16.07;67.92
10060;BME280;5069;49.306;8.636;2023-05-20T02:06:46;100625.03;;;16.02;67.78
10060;BME280;5069;49.306;8.636;2023-05-20T02:09:48;100624.88;;;16.05;67.87
10060;BME280;5069;49.306;8.636;2023-05-20T02:12:50;100619.00;;;15.99;68.59
10060;BME280;5069;49.306;8.636;2023-05-20T02:15:51;100617.84;;;16.04;67.80
10060;BME280;5069;49.306;8.636;2023-05-20T02:18:53;100608.81;;;16.07;68.63
10060;BME280;5069;49.306;8.636;2023-05-20T02:21:54;100611.97;;;15.98;68.82
10060;BME280;5069;49.306;8.636;2023-05-20T02:24:56;100614.00;;;15.93;69.61
10060;BME280;5069;49.306;8.636;2023-05-20T02:27:57;100616.13;;;15.86;69.65
10060;BME280;5069;49.306;8.636;2023-05-20T02:31:01;100607.22;;;15.87;68.81
10060;BME280;5069;49.306;8.636;2023-05-20T02:34:04;100610.50;;;15.92;70.31
10060;BME280;5069;49.306;8.636;2023-05-20T02:37:06;100614.09;;;15.91;70.69
10060;BME280;5069;49.306;8.636;2023-05-20T02:40:08;100602.34;;;15.78;71.08
10060;BME280;5069;49.306;8.636;2023-05-20T02:43:11;100605.81;;;15.80;71.39
10060;BME280;5069;49.306;8.636;2023-05-20T02:46:13;100594.94;;;15.85;71.13
10060;BME280;5069;49.306;8.636;2023-05-20T02:49:15;100592.38;;;15.83;70.55
10060;BME280;5069;49.306;8.636;2023-05-20T02:52:17;100590.34;;;15.88;70.38
10060;BME280;5069;49.306;8.636;2023-05-20T02:55:19;100582.13;;;15.93;71.09
10060;BME280;5069;49.306;8.636;2023-05-20T02:58:20;100591.09;;;15.90;70.58
10060;BME280;5069;49.306;8.636;2023-05-20T03:01:26;100587.50;;;15.91;71.65
10060;BME280;5069;49.306;8.636;2023-05-20T03:04:29;100583.13;;;15.90;71.15
10060;BME280;5069;49.306;8.636;2023-05-20T03:07:35;100591.94;;;15.91;71.01
10060;BME280;5069;49.306;8.636;2023-05-20T03:10:39;100588.97;;;15.97;70.39
10060;BME280;5069;49.306;8.636;2023-05-20T03:13:40;100593.28;;;15.99;70.55
10060;BME280;5069;49.306;8.636;2023-05-20T03:16:42;100587.09;;;15.99;70.85
10060;BME280;5069;49.306;8.636;2023-05-20T03:19:43;100588.13;;;15.96;70.94
10060;BME280;5069;49.306;8.636;2023-05-20T03:22:45;100593.28;;;15.99;70.90
10060;BME280;5069;49.306;8.636;2023-05-20T03:25:47;100599.06;;;15.90;71.49
10060;BME280;5069;49.306;8.636;2023-05-20T03:28:48;100594.63;;;15.91;71.44
10060;BME280;5069;49.306;8.636;2023-05-20T03:31:50;100604.38;;;15.90;71.66
10060;BME280;5069;49.306;8.636;2023-05-20T03:34:52;100600.72;;;15.93;71.89
10060;BME280;5069;49.306;8.636;2023-05-20T03:37:54;100606.72;;;15.96;71.32
10060;BME280;5069;49.306;8.636;2023-05-20T03:40:58;100610.25;;;15.97;71.42
10060;BME280;5069;49.306;8.636;2023-05-20T03:43:59;100609.88;;;15.87;71.85
10060;BME280;5069;49.306;8.636;2023-05-20T03:47:01;100609.88;;;15.87;71.70
10060;BME280;5069;49.306;8.636;2023-05-20T03:50:04;100614.25;;;15.88;71.84
10060;BME280;5069;49.306;8.636;2023-05-20T03:53:06;100612.38;;;15.90;72.28
10060;BME280;5069;49.306;8.636;2023-05-20T03:56:12;100610.81;;;15.86;72.26
10060;BME280;5069;49.306;8.636;2023-05-20T03:59:15;100611.06;;;15.82;72.62
10060;BME280;5069;49.306;8.636;2023-05-20T04:02:16;100613.66;;;15.83;72.67
10060;BME280;5069;49.306;8.636;2023-05-20T04:05:18;100613.66;;;15.83;72.95
10060;BME280;5069;49.306;8.636;2023-05-20T04:08:20;100607.78;;;15.77;73.43
10060;BME280;5069;49.306;8.636;2023-05-20T04:11:22;100606.19;;;15.73;74.25
10060;BME280;5069;49.306;8.636;2023-05-20T04:14:24;100608.78;;;15.74;74.07
10060;BME280;5069;49.306;8.636;2023-05-20T04:17:29;100607.38;;;15.67;74.23
10060;BME280;5069;49.306;8.636;2023-05-20T04:20:31;100611.81;;;15.66;74.57
10060;BME280;5069;49.306;8.636;2023-05-20T04:23:34;100615.03;;;15.56;75.10
10060;BME280;5069;49.306;8.636;2023-05-20T04:26:35;100620.19;;;15.59;75.28
10060;BME280;5069;49.306;8.636;2023-05-20T04:29:37;100613.97;;;15.60;75.20
10060;BME280;5069;49.306;8.636;2023-05-20T04:32:41;100616.31;;;15.66;75.23
10060;BME280;5069;49.306;8.636;2023-05-20T04:35:43;100615.44;;;15.65;74.56
10060;BME280;5069;49.306;8.636;2023-05-20T04:38:45;100614.56;;;15.65;74.68
10060;BME280;5069;49.306;8.636;2023-05-20T04:41:47;100610.25;;;15.62;75.39
10060;BME280;5069;49.306;8.636;2023-05-20T04:44:50;100615.19;;;15.70;75.28
10060;BME280;5069;49.306;8.636;2023-05-20T04:47:52;100601.06;;;15.69;75.49
10060;BME280;5069;49.306;8.636;2023-05-20T04:50:53;100612.94;;;15.44;75.80
10060;BME280;5069;49.306;8.636;2023-05-20T04:53:55;100606.34;;;15.16;76.65
10060;BME280;5069;49.306;8.636;2023-05-20T04:56:57;100604.13;;;14.90;78.03
10060;BME280;5069;49.306;8.636;2023-05-20T04:59:59;100603.53;;;14.83;79.16
10060;BME280;5069;49.306;8.636;2023-05-20T05:03:01;100608.44;;;14.74;79.12
10060;BME280;5069;49.306;8.636;2023-05-20T05:06:04;100610.56;;;14.66;80.72
10060;BME280;5069;49.306;8.636;2023-05-20T05:09:05;100605.63;;;14.77;80.69
10060;BME280;5069;49.306;8.636;2023-05-20T05:12:11;100601.41;;;14.73;80.47
10060;BME280;5069;49.306;8.636;2023-05-20T05:15:12;100596.97;;;14.73;81.13
10060;BME280;5069;49.306;8.636;2023-05-20T05:18:16;100594.38;;;14.72;80.88
10060;BME280;5069;49.306;8.636;2023-05-20T05:21:18;100590.63;;;14.76;81.67
10060;BME280;5069;49.306;8.636;2023-05-20T05:24:21;100588.94;;;14.75;81.30
10060;BME280;5069;49.306;8.636;2023-05-20T05:27:23;100586.06;;;14.79;80.46
10060;BME280;5069;49.306;8.636;2023-05-20T05:30:25;100577.69;;;14.87;81.49
10060;BME280;5069;49.306;8.636;2023-05-20T05:33:27;100583.50;;;14.95;81.57
10060;BME280;5069;49.306;8.636;2023-05-20T05:36:32;100583.06;;;15.04;80.80
10060;BME280;5069;49.306;8.636;2023-05-20T05:39:39;100570.09;;;15.15;80.94
10060;BME280;5069;49.306;8.636;2023-05-20T05:42:41;100570.44;;;15.26;80.48
10060;BME280;5069;49.306;8.636;2023-05-20T05:45:42;100567.72;;;15.28;80.61
10060;BME280;5069;49.306;8.636;2023-05-20T05:48:44;100571.09;;;15.32;80.64
10060;BME280;5069;49.306;8.636;2023-05-20T05:51:50;100569.75;;;15.40;80.57
10060;BME280;5069;49.306;8.636;2023-05-20T05:54:53;100562.34;;;15.47;80.38
10060;BME280;5069;49.306;8.636;2023-05-20T05:57:55;100564.34;;;15.60;80.84
10060;BME280;5069;49.306;8.636;2023-05-20T06:00:57;100570.56;;;15.77;80.33
10060;BME280;5069;49.306;8.636;2023-05-20T06:03:58;100569.16;;;15.69;80.39
10060;BME280;5069;49.306;8.636;2023-05-20T06:07:00;100571.19;;;15.82;81.03
10060;BME280;5069;49.306;8.636;2023-05-20T06:10:02;100566.69;;;15.99;79.74
10060;BME280;5069;49.306;8.636;2023-05-20T06:13:04;100563.72;;;16.05;79.15
10060;BME280;5069;49.306;8.636;2023-05-20T06:16:06;100567.59;;;16.16;79.43
10060;BME280;5069;49.306;8.636;2023-05-20T06:19:08;100566.41;;;16.21;79.63
10060;BME280;5069;49.306;8.636;2023-05-20T06:22:10;100564.16;;;16.13;78.98
10060;BME280;5069;49.306;8.636;2023-05-20T06:25:12;100558.69;;;16.17;80.00
10060;BME280;5069;49.306;8.636;2023-05-20T06:28:15;100560.22;;;16.21;80.14
10060;BME280;5069;49.306;8.636;2023-05-20T06:31:16;100559.72;;;16.30;79.65
10060;BME280;5069;49.306;8.636;2023-05-20T06:34:18;100561.88;;;16.39;79.98
10060;BME280;5069;49.306;8.636;2023-05-20T06:37:19;100560.09;;;16.39;79.05
10060;BME280;5069;49.306;8.636;2023-05-20T06:40:24;100561.63;;;16.43;80.14
10060;BME280;5069;49.306;8.636;2023-05-20T06:43:28;100559.81;;;16.44;80.21
10060;BME280;5069;49.306;8.636;2023-05-20T06:46:43;100558.22;;;16.57;80.07
10060;BME280;5069;49.306;8.636;2023-05-20T06:49:48;100552.56;;;16.63;79.37
10060;BME280;5069;49.306;8.636;2023-05-20T06:52:49;100550.19;;;16.74;79.09
10060;BME280;5069;49.306;8.636;2023-05-20T06:55:54;100549.09;;;16.92;78.08
10060;BME280;5069;49.306;8.636;2023-05-20T06:58:56;100542.22;;;17.04;78.11
10060;BME280;5069;49.306;8.636;2023-05-20T07:01:58;100549.41;;;17.18;77.73
10060;BME280;5069;49.306;8.636;2023-05-20T07:05:00;100553.84;;;17.33;76.69
10060;BME280;5069;49.306;8.636;2023-05-20T07:08:01;100543.13;;;17.49;76.34
10060;BME280;5069;49.306;8.636;2023-05-20T07:11:03;100537.59;;;17.67;75.21
10060;BME280;5069;49.306;8.636;2023-05-20T07:14:04;100540.78;;;17.88;74.55
10060;BME280;5069;49.306;8.636;2023-05-20T07:17:06;100532.38;;;18.08;71.98
10060;BME280;5069;49.306;8.636;2023-05-20T07:20:08;100527.31;;;18.32;71.34
10060;BME280;5069;49.306;8.636;2023-05-20T07:23:10;100532.81;;;18.43;69.51
10060;BME280;5069;49.306;8.636;2023-05-20T07:26:15;100523.84;;;18.58;70.06
10060;BME280;5069;49.306;8.636;2023-05-20T07:29:17;100516.28;;;18.79;68.45
10060;BME280;5069;49.306;8.636;2023-05-20T07:32:19;100518.25;;;18.90;66.88
10060;BME280;5069;49.306;8.636;2023-05-20T07:35:20;100515.31;;;19.07;65.74
10060;BME280;5069;49.306;8.636;2023-05-20T07:38:22;100508.56;;;19.02;65.27
10060;BME280;5069;49.306;8.636;2023-05-20T07:41:30;100507.72;;;19.14;66.98
10060;BME280;5069;49.306;8.636;2023-05-20T07:44:32;100503.72;;;19.33;65.60
10060;BME280;5069;49.306;8.636;2023-05-20T07:47:34;100498.47;;;19.32;65.29
10060;BME280;5069;49.306;8.636;2023-05-20T07:50:36;100494.94;;;19.31;64.90
10060;BME280;5069;49.306;8.636;2023-05-20T07:53:38;100500.28;;;19.31;64.54
10060;BME280;5069;49.306;8.636;2023-05-20T07:56:40;100480.56;;;19.59;65.10
10060;BME280;5069;49.306;8.636;2023-05-20T07:59:43;100491.78;;;19.77;62.21
10060;BME280;5069;49.306;8.636;2023-05-20T08:02:45;100491.91;;;19.75;61.76
10060;BME280;5069;49.306;8.636;2023-05-20T08:05:52;100479.16;;;20.04;61.80
10060;BME280;5069;49.306;8.636;2023-05-20T08:08:53;100487.00;;;20.31;60.20
10060;BME280;5069;49.306;8.636;2023-05-20T08:12:01;100493.66;;;20.26;59.94
10060;BME280;5069;49.306;8.636;2023-05-20T08:15:04;100486.41;;;20.15;59.13
10060;BME280;5069;49.306;8.636;2023-05-20T08:18:05;100484.72;;;20.01;59.73
10060;BME280;5069;49.306;8.636;2023-05-20T08:21:08;100480.09;;;20.16;60.01
10060;BME280;5069;49.306;8.636;2023-05-20T08:24:10;100489.19;;;20.39;59.34
10060;BME280;5069;49.306;8.636;2023-05-20T08:27:12;100478.38;;;20.64;58.42
10060;BME280;5069;49.306;8.636;2023-05-20T08:30:14;100481.72;;;20.55;57.29
10060;BME280;5069;49.306;8.636;2023-05-20T08:33:15;100478.16;;;20.18;58.25
10060;BME280;5069;49.306;8.636;2023-05-20T08:36:19;100492.06;;;20.36;57.91
10060;BME280;5069;49.306;8.636;2023-05-20T08:39:20;100482.25;;;20.60;57.61
10060;BME280;5069;49.306;8.636;2023-05-20T08:42:23;100476.31;;;20.91;58.06
10060;BME280;5069;49.306;8.636;2023-05-20T08:45:30;100461.75;;;21.07;55.45
10060;BME280;5069;49.306;8.636;2023-05-20T08:48:38;100463.09;;;20.77;56.56
10060;BME280;5069;49.306;8.636;2023-05-20T08:51:40;100457.88;;;21.11;56.29
10060;BME280;5069;49.306;8.636;2023-05-20T08:54:44;100447.78;;;20.90;55.43
10060;BME280;5069;49.306;8.636;2023-05-20T08:57:47;100454.75;;;20.93;56.32
10060;BME280;5069;49.306;8.636;2023-05-20T09:00:50;100461.59;;;20.97;54.90
10060;BME280;5069;49.306;8.636;2023-05-20T09:03:53;100453.44;;;20.98;55.76
10060;BME280;5069;49.306;8.636;2023-05-20T09:06:54;100446.81;;;20.91;55.11
10060;BME280;5069;49.306;8.636;2023-05-20T09:09:56;100452.81;;;20.95;55.34
10060;BME280;5069;49.306;8.636;2023-05-20T09:13:00;100449.03;;;20.97;55.16
10060;BME280;5069;49.306;8.636;2023-05-20T09:16:03;100445.56;;;20.73;55.21
10060;BME280;5069;49.306;8.636;2023-05-20T09:19:05;100435.16;;;20.92;56.60
10060;BME280;5069;49.306;8.636;2023-05-20T09:22:07;100437.28;;;21.57;54.52
10060;BME280;5069;49.306;8.636;2023-05-20T09:25:09;100419.84;;;21.85;53.40
10060;BME280;5069;49.306;8.636;2023-05-20T09:28:12;100431.47;;;21.97;51.75
10060;BME280;5069;49.306;8.636;2023-05-20T09:31:15;100447.00;;;21.36;51.97
10060;BME280;5069;49.306;8.636;2023-05-20T09:34:16;100438.25;;;21.45;54.26
10060;BME280;5069;49.306;8.636;2023-05-20T09:37:20;100420.09;;;21.82;52.93
10060;BME280;5069;49.306;8.636;2023-05-20T09:40:26;100430.50;;;21.98;51.91
10060;BME280;5069;49.306;8.636;2023-05-20T09:43:28;100428.41;;;22.12;51.55
10060;BME280;5069;49.306;8.636;2023-05-20T09:46:30;100432.56;;;22.05;52.26
10060;BME280;5069;49.306;8.636;2023-05-20T09:49:32;100432.91;;;22.12;51.40
10060;BME280;5069;49.306;8.636;2023-05-20T09:52:38;100435.88;;;22.09;52.11
10060;BME280;5069;49.306;8.636;2023-05-20T09:55:40;100437.03;;;21.82;52.40
10060;BME280;5069;49.306;8.636;2023-05-20T09:58:43;100441.69;;;21.69;52.55
10060;BME280;5069;49.306;8.636;2023-05-20T10:01:45;100428.28;;;21.58;52.35
10060;BME280;5069;49.306;8.636;2023-05-20T10:04:48;100427.25;;;21.48;53.08
10060;BME280;5069;49.306;8.636;2023-05-20T10:14:55;100415.22;;;21.87;51.85
10060;BME280;5069;49.306;8.636;2023-05-20T10:18:24;100409.97;;;22.19;51.54
10060;BME280;5069;49.306;8.636;2023-05-20T10:21:31;100396.47;;;22.41;51.10
10060;BME280;5069;49.306;8.636;2023-05-20T10:24:41;100396.38;;;22.75;49.13
10060;BME280;5069;49.306;8.636;2023-05-20T10:27:45;100387.56;;;22.84;48.47
10060;BME280;5069;49.306;8.636;2023-05-20T10:30:50;100390.38;;;23.03;48.78
10060;BME280;5069;49.306;8.636;2023-05-20T10:33:52;100394.75;;;23.25;48.74
10060;BME280;5069;49.306;8.636;2023-05-20T10:40:09;100380.53;;;23.55;47.53
10060;BME280;5069;49.306;8.636;2023-05-20T10:43:14;100383.00;;;23.77;47.49
10060;BME280;5069;49.306;8.636;2023-05-20T10:46:19;100378.50;;;23.87;45.98
10060;BME280;5069;49.306;8.636;2023-05-20T10:49:42;100377.97;;;23.93;46.26
10060;BME280;5069;49.306;8.636;2023-05-20T10:52:44;100374.94;;;23.77;45.90
10060;BME280;5069;49.306;8.636;2023-05-20T10:55:48;100366.88;;;23.77;45.56
10060;BME280;5069;49.306;8.636;2023-05-20T10:58:53;100376.66;;;24.27;45.36
10060;BME280;5069;49.306;8.636;2023-05-20T11:01:55;100372.97;;;24.28;45.98
10060;BME280;5069;49.306;8.636;2023-05-20T11:04:56;100374.94;;;24.26;45.12
10060;BME280;5069;49.306;8.636;2023-05-20T11:08:02;100372.38;;;23.75;46.12
10060;BME280;5069;49.306;8.636;2023-05-20T11:11:11;100375.44;;;23.92;46.33
10060;BME280;5069;49.306;8.636;2023-05-20T11:14:14;100366.97;;;24.15;45.72
10060;BME280;5069;49.306;8.636;2023-05-20T11:17:17;100366.94;;;24.06;45.69
10060;BME280;5069;49.306;8.636;2023-05-20T11:20:19;100370.50;;;23.66;46.57
10060;BME280;5069;49.306;8.636;2023-05-20T11:23:21;100367.59;;;23.79;46.46
10060;BME280;5069;49.306;8.636;2023-05-20T11:26:23;100364.81;;;23.60;45.76
10060;BME280;5069;49.306;8.636;2023-05-20T11:29:25;100366.91;;;23.46;46.69
10060;BME280;5069;49.306;8.636;2023-05-20T11:32:27;100359.13;;;23.32;47.27
10060;BME280;5069;49.306;8.636;2023-05-20T11:35:32;100354.56;;;23.23;47.96
10060;BME280;5069;49.306;8.636;2023-05-20T11:38:33;100344.31;;;23.38;46.79
10060;BME280;5069;49.306;8.636;2023-05-20T11:41:34;100344.38;;;23.27;46.70
10060;BME280;5069;49.306;8.636;2023-05-20T11:44:36;100340.41;;;23.21;46.88
10060;BME280;5069;49.306;8.636;2023-05-20T11:47:43;100333.94;;;23.33;47.01
10060;BME280;5069;49.306;8.636;2023-05-20T11:50:46;100335.78;;;23.33;46.39
10060;BME280;5069;49.306;8.636;2023-05-20T11:53:47;100328.03;;;23.39;46.14
10060;BME280;5069;49.306;8.636;2023-05-20T11:56:49;100326.34;;;23.69;46.04
10060;BME280;5069;49.306;8.636;2023-05-20T11:59:50;100321.28;;;23.95;46.90
10060;BME280;5069;49.306;8.636;2023-05-20T12:02:52;100316.50;;;24.17;45.01
10060;BME280;5069;49.306;8.636;2023-05-20T12:05:54;100323.81;;;23.77;46.13
10060;BME280;5069;49.306;8.636;2023-05-20T12:08:56;100320.50;;;23.64;46.48
10060;BME280;5069;49.306;8.636;2023-05-20T12:11:57;100329.16;;;23.67;46.69
10060;BME280;5069;49.306;8.636;2023-05-20T12:14:59;100331.94;;;23.35;47.21
10060;BME280;5069;49.306;8.636;2023-05-20T12:18:01;100331.66;;;23.29;47.28
10060;BME280;5069;49.306;8.636;2023-05-20T12:21:03;100313.31;;;23.13;47.38
10060;BME280;5069;49.306;8.636;2023-05-20T12:24:04;100309.19;;;23.39;47.67
10060;BME280;5069;49.306;8.636;2023-05-20T12:27:07;100305.53;;;23.40;47.56
10060;BME280;5069;49.306;8.636;2023-05-20T12:30:09;100319.16;;;23.48;46.95
10060;BME280;5069;49.306;8.636;2023-05-20T12:33:10;100306.16;;;23.23;47.20
10060;BME280;5069;49.306;8.636;2023-05-20T12:36:13;100305.53;;;23.40;47.66
10060;BME280;5069;49.306;8.636;2023-05-20T12:39:14;100300.94;;;23.31;47.07
10060;BME280;5069;49.306;8.636;2023-05-20T12:42:18;100309.00;;;23.52;47.19
10060;BME280;5069;49.306;8.636;2023-05-20T12:45:20;100301.66;;;23.33;46.88
10060;BME280;5069;49.306;8.636;2023-05-20T12:48:21;100304.06;;;23.36;47.10
10060;BME280;5069;49.306;8.636;2023-05-20T12:51:23;100295.69;;;23.60;46.11
10060;BME280;5069;49.306;8.636;2023-05-20T12:54:24;100293.19;;;23.78;45.88
10060;BME280;5069;49.306;8.636;2023-05-20T12:57:28;100295.53;;;24.11;45.55
10060;BME280;5069;49.306;8.636;2023-05-20T13:00:30;100303.19;;;24.06;44.99
10060;BME280;5069;49.306;8.636;2023-05-20T13:03:31;100302.69;;;23.82;46.45
10060;BME280;5069;49.306;8.636;2023-05-20T13:06:33;100293.03;;;23.70;46.96
10060;BME280;5069;49.306;8.636;2023-05-20T13:09:35;100286.34;;;23.55;47.16
10060;BME280;5069;49.306;8.636;2023-05-20T13:12:36;100290.44;;;23.59;46.53
10060;BME280;5069;49.306;8.636;2023-05-20T13:15:38;100286.97;;;23.68;46.36
10060;BME280;5069;49.306;8.636;2023-05-20T13:18:40;100290.09;;;23.73;46.03
10060;BME280;5069;49.306;8.636;2023-05-20T13:21:41;100292.53;;;23.45;46.86
10060;BME280;5069;49.306;8.636;2023-05-20T13:24:43;100281.44;;;23.39;46.20
10060;BME280;5069;49.306;8.636;2023-05-20T13:27:44;100288.53;;;23.40;45.58
10060;BME280;5069;49.306;8.636;2023-05-20T13:30:46;100279.25;;;23.54;45.71
10060;BME280;5069;49.306;8.636;2023-05-20T13:33:47;100277.72;;;23.61;45.95
10060;BME280;5069;49.306;8.636;2023-05-20T13:36:49;100279.13;;;23.65;46.24
10060;BME280;5069;49.306;8.636;2023-05-20T13:39:52;100270.50;;;23.61;46.52
10060;BME280;5069;49.306;8.636;2023-05-20T13:42:53;100272.56;;;23.48;46.54
10060;BME280;5069;49.306;8.636;2023-05-20T13:45:55;100271.00;;;23.45;46.87
10060;BME280;5069;49.306;8.636;2023-05-20T13:48:56;100267.13;;;23.69;46.35
10060;BME280;5069;49.306;8.636;2023-05-20T13:51:58;100251.97;;;23.68;46.64
10060;BME280;5069;49.306;8.636;2023-05-20T13:55:00;100255.50;;;23.68;46.40
10060;BME280;5069;49.306;8.636;2023-05-20T13:58:01;100252.22;;;23.65;46.74
10060;BME280;5069;49.306;8.636;2023-05-20T14:01:04;100252.94;;;23.67;46.23
10060;BME280;5069;49.306;8.636;2023-05-20T14:04:06;100250.69;;;23.72;45.64
10060;BME280;5069;49.306;8.636;2023-05-20T14:07:07;100236.81;;;23.76;45.75
10060;BME280;5069;49.306;8.636;2023-05-20T14:10:10;100240.66;;;23.74;45.78
10060;BME280;5069;49.306;8.636;2023-05-20T14:13:12;100233.00;;;23.79;46.93
10060;BME280;5069;49.306;8.636;2023-05-20T14:16:13;100229.03;;;23.83;46.14
10060;BME280;5069;49.306;8.636;2023-05-20T14:19:15;100225.06;;;23.77;46.14
10060;BME280;5069;49.306;8.636;2023-05-20T14:22:17;100224.06;;;23.69;46.83
10060;BME280;5069;49.306;8.636;2023-05-20T14:25:20;100221.25;;;23.80;46.74
10060;BME280;5069;49.306;8.636;2023-05-20T14:28:22;100221.25;;;23.99;46.61
10060;BME280;5069;49.306;8.636;2023-05-20T14:31:24;100214.47;;;24.24;45.53
10060;BME280;5069;49.306;8.636;2023-05-20T14:34:26;100203.09;;;24.11;45.74
10060;BME280;5069;49.306;8.636;2023-05-20T14:37:28;100202.81;;;24.04;45.76
10060;BME280;5069;49.306;8.636;2023-05-20T14:40:29;100199.28;;;23.94;46.09
10060;BME280;5069;49.306;8.636;2023-05-20T14:43:31;100195.59;;;24.05;46.84
10060;BME280;5069;49.306;8.636;2023-05-20T14:46:33;100197.06;;;24.18;46.71
10060;BME280;5069;49.306;8.636;2023-05-20T14:49:35;100194.91;;;24.32;46.41
10060;BME280;5069;49.306;8.636;2023-05-20T14:52:39;100207.66;;;24.29;45.67
10060;BME280;5069;49.306;8.636;2023-05-20T14:55:40;100205.94;;;24.38;45.39
10060;BME280;5069;49.306;8.636;2023-05-20T14:58:42;100200.47;;;24.20;45.85
10060;BME280;5069;49.306;8.636;2023-05-20T15:01:43;100193.22;;;23.92;46.40
10060;BME280;5069;49.306;8.636;2023-05-20T15:04:45;100195.63;;;23.85;46.42
10060;BME280;5069;49.306;8.636;2023-05-20T15:07:48;100194.59;;;23.77;46.77
10060;BME280;5069;49.306;8.636;2023-05-20T15:10:50;100191.47;;;23.72;46.85
10060;BME280;5069;49.306;8.636;2023-05-20T15:13:51;100198.28;;;23.76;46.57
10060;BME280;5069;49.306;8.636;2023-05-20T15:16:53;100205.94;;;23.71;46.78
10060;BME280;5069;49.306;8.636;2023-05-20T15:19:54;100199.28;;;23.75;46.92
10060;BME280;5069;49.306;8.636;2023-05-20T15:22:56;100196.31;;;23.78;47.02
10060;BME280;5069;49.306;8.636;2023-05-20T15:26:00;100200.13;;;24.04;46.02
10060;BME280;5069;49.306;8.636;2023-05-20T15:29:02;100198.84;;;23.99;45.92
10060;BME280;5069;49.306;8.636;2023-05-20T15:32:04;100204.25;;;24.08;46.45
10060;BME280;5069;49.306;8.636;2023-05-20T15:35:07;100196.91;;;24.29;46.36
10060;BME280;5069;49.306;8.636;2023-05-20T15:38:09;100195.44;;;24.16;46.21
10060;BME280;5069;49.306;8.636;2023-05-20T15:41:10;100194.75;;;24.14;46.57
10060;BME280;5069;49.306;8.636;2023-05-20T15:44:16;100202.81;;;24.04;46.59
10060;BME280;5069;49.306;8.636;2023-05-20T15:47:18;100202.66;;;24.15;46.19
10060;BME280;5069;49.306;8.636;2023-05-20T15:50:20;100204.00;;;24.31;46.36
10060;BME280;5069;49.306;8.636;2023-05-20T15:53:23;100210.22;;;24.31;46.36
10060;BME280;5069;49.306;8.636;2023-05-20T15:56:25;100199.72;;;24.38;46.32
10060;BME280;5069;49.306;8.636;2023-05-20T15:59:26;100200.88;;;24.25;46.76
10060;BME280;5069;49.306;8.636;2023-05-20T16:02:28;100199.97;;;24.15;46.96
10060;BME280;5069;49.306;8.636;2023-05-20T16:05:32;100200.56;;;24.00;46.93
10060;BME280;5069;49.306;8.636;2023-05-20T16:08:34;100201.56;;;23.79;47.45
10060;BME280;5069;49.306;8.636;2023-05-20T16:11:37;100204.22;;;23.70;47.55
10060;BME280;5069;49.306;8.636;2023-05-20T16:14:39;100204.09;;;23.62;47.42
10060;BME280;5069;49.306;8.636;2023-05-20T16:17:40;100196.00;;;23.62;48.05